Time;durP1;ratioP1;P1;durP2;ratioP2;P2;SDS_P1;SDS_P2;PMS_P1;PMS_P2;Temp;Humidity;BMP_temperature;BMP_pressure;BME280_temperature;BME280_humidity;BME280_pressure;Samples;Min_cycle;Max_cycle;Signal;HPM_P1;HPM_P2
2021/04/20 00:00:12;;;;;;;11.33;8.28;;;11.00;99.70;;;;;;1819063;79;21117;-71
2021/04/20 00:02:42;;;;;;;12.35;8.88;;;11.00;99.80;;;;;;1819255;79;21126;-73
2021/04/20 00:05:17;;;;;;;14.00;8.40;;;11.00;99.40;;;;;;1822703;79;21129;-72
2021/04/20 00:07:47;;;;;;;11.97;7.60;;;11.00;99.60;;;;;;1822483;79;21279;-72
2021/04/20 00:10:18;;;;;;;12.20;8.18;;;11.00;99.40;;;;;;1822526;79;21145;-69
2021/04/20 00:12:47;;;;;;;12.37;7.70;;;11.00;99.10;;;;;;1822573;79;21271;-73
2021/04/20 00:15:26;;;;;;;10.60;7.35;;;11.00;98.70;;;;;;1822404;79;21352;-71
2021/04/20 00:17:57;;;;;;;10.82;7.60;;;11.00;98.40;;;;;;1822670;79;21133;-71
2021/04/20 00:20:26;;;;;;;11.53;7.62;;;11.00;99.10;;;;;;1822834;79;21267;-71
2021/04/20 00:22:54;;;;;;;11.78;7.40;;;11.10;98.40;;;;;;1822488;78;21282;-72
2021/04/20 00:25:23;;;;;;;10.82;7.35;;;11.20;98.20;;;;;;1822517;79;21132;-72
2021/04/20 00:27:51;;;;;;;11.12;7.35;;;11.20;97.30;;;;;;1822500;79;21275;-72
2021/04/20 00:30:19;;;;;;;11.00;7.40;;;11.30;97.60;;;;;;1822502;78;21284;-72
2021/04/20 00:32:46;;;;;;;11.05;7.67;;;11.30;97.50;;;;;;1822518;79;21137;-69
2021/04/20 00:35:15;;;;;;;10.78;7.67;;;11.30;97.20;;;;;;1822529;79;21604;-69
2021/04/20 00:37:44;;;;;;;12.33;7.72;;;11.30;97.20;;;;;;1822671;79;21306;-70
2021/04/20 00:40:15;;;;;;;12.28;7.65;;;11.30;97.20;;;;;;1822498;79;21133;-71
2021/04/20 00:42:55;;;;;;;11.10;7.97;;;11.30;97.30;;;;;;1822509;79;21263;-71
2021/04/20 00:45:28;;;;;;;13.62;8.28;;;11.30;97.30;;;;;;1822555;79;21130;-71
2021/04/20 00:47:56;;;;;;;10.72;7.62;;;11.30;97.30;;;;;;1822524;79;21101;-72
2021/04/20 00:50:29;;;;;;;12.03;8.38;;;11.30;97.20;;;;;;1822569;79;21271;-72
2021/04/20 00:52:57;;;;;;;12.15;8.35;;;11.30;97.10;;;;;;1822364;79;21126;-70
2021/04/20 00:55:25;;;;;;;13.48;8.65;;;11.30;97.50;;;;;;1822626;79;21295;-71
2021/04/20 00:57:53;;;;;;;12.10;8.00;;;11.30;97.70;;;;;;1808792;79;21097;-72
2021/04/20 01:00:31;;;;;;;13.03;8.68;;;11.20;98.20;;;;;;1789218;80;21576;-72
2021/04/20 01:03:01;;;;;;;12.93;8.55;;;11.20;98.50;;;;;;1790158;80;21145;-71
2021/04/20 01:05:33;;;;;;;12.58;8.95;;;11.10;98.60;;;;;;1786821;80;21631;-71
2021/04/20 01:08:08;;;;;;;13.38;8.53;;;11.10;98.40;;;;;;1787168;80;21595;-72
2021/04/20 01:10:48;;;;;;;12.25;8.63;;;11.00;98.70;;;;;;1787544;80;21142;-72
2021/04/20 01:13:19;;;;;;;14.15;9.68;;;11.00;99.30;;;;;;1787033;80;21607;-71
2021/04/20 01:15:50;;;;;;;13.90;8.70;;;11.00;99.20;;;;;;1787276;80;21153;-72
2021/04/20 01:18:31;;;;;;;14.60;8.88;;;11.00;99.50;;;;;;1787072;80;21597;-72
2021/04/20 01:21:07;;;;;;;13.62;8.50;;;11.00;99.90;;;;;;1787070;80;21129;-73
2021/04/20 01:24:11;;;;;;;12.03;8.30;;;10.90;99.60;;;;;;1787511;80;21604;-72
2021/04/20 01:26:43;;;;;;;11.48;7.80;;;11.00;99.00;;;;;;1787343;80;21552;-72
2021/04/20 01:29:11;;;;;;;12.60;8.48;;;11.10;98.20;;;;;;1787083;80;21090;-72
2021/04/20 01:31:42;;;;;;;14.53;8.63;;;11.20;98.50;;;;;;1787067;80;21560;-72
2021/04/20 01:34:13;;;;;;;13.50;9.00;;;11.20;98.40;;;;;;1787277;80;21597;-72
2021/04/20 01:36:42;;;;;;;13.35;8.95;;;11.10;98.10;;;;;;1787270;80;21130;-71
2021/04/20 01:39:13;;;;;;;13.68;8.90;;;11.10;98.20;;;;;;1787048;80;21595;-71
2021/04/20 01:41:42;;;;;;;13.78;9.68;;;11.10;98.60;;;;;;1787258;80;21560;-72
2021/04/20 01:44:10;;;;;;;12.23;9.13;;;11.10;98.10;;;;;;1787213;80;21559;-72
2021/04/20 01:46:38;;;;;;;14.03;9.65;;;11.20;97.70;;;;;;1787155;80;21150;-72
2021/04/20 01:49:06;;;;;;;15.00;9.95;;;11.10;97.80;;;;;;1787123;80;21544;-72
2021/04/20 01:51:34;;;;;;;14.40;9.28;;;11.10;97.90;;;;;;1787039;80;21588;-71
2021/04/20 01:54:03;;;;;;;14.53;9.40;;;11.00;98.50;;;;;;1787282;80;21169;-72
2021/04/20 01:56:32;;;;;;;14.07;9.23;;;10.90;98.50;;;;;;1787024;80;21141;-72
2021/04/20 01:59:02;;;;;;;14.80;9.78;;;10.90;98.50;;;;;;1787233;80;21153;-71
2021/04/20 02:01:31;;;;;;;14.75;9.35;;;10.80;99.40;;;;;;1787191;80;21145;-72
2021/04/20 02:03:59;;;;;;;13.53;9.45;;;10.90;98.90;;;;;;1787091;80;21172;-72
2021/04/20 02:06:26;;;;;;;12.70;9.50;;;10.80;98.40;;;;;;1787101;80;21586;-71
2021/04/20 02:08:54;;;;;;;15.30;9.88;;;10.80;98.60;;;;;;1782071;80;21167;-73
2021/04/20 02:11:24;;;;;;;15.80;10.00;;;10.70;99.50;;;;;;1787510;80;21571;-73
2021/04/20 02:13:52;;;;;;;14.60;9.65;;;10.70;99.40;;;;;;1786993;80;21177;-73
2021/04/20 02:16:22;;;;;;;13.90;9.00;;;10.70;99.90;;;;;;1787158;80;21168;-72
2021/04/20 02:19:00;;;;;;;15.38;9.33;;;10.70;99.90;;;;;;1786975;80;21603;-71
2021/04/20 02:21:29;;;;;;;13.45;9.15;;;10.70;99.90;;;;;;1787312;80;21552;-71
2021/04/20 02:23:57;;;;;;;14.60;9.13;;;10.80;99.20;;;;;;1787094;80;21583;-71
2021/04/20 02:26:36;;;;;;;14.58;10.10;;;10.70;99.20;;;;;;1787189;80;21567;-72
2021/04/20 02:29:07;;;;;;;13.48;9.18;;;10.80;98.80;;;;;;1749607;82;21165;-72
2021/04/20 02:31:41;;;;;;;15.38;9.95;;;10.80;99.00;;;;;;1787636;80;21810;-72
2021/04/20 02:34:12;;;;;;;13.98;9.65;;;10.90;98.70;;;;;;1787017;80;21211;-72
2021/04/20 02:36:43;;;;;;;13.88;9.18;;;10.80;98.40;;;;;;1787276;80;21133;-72
2021/04/20 02:39:13;;;;;;;15.83;10.00;;;10.70;99.10;;;;;;1787500;80;21129;-72
2021/04/20 02:41:47;;;;;;;14.83;9.95;;;10.80;99.00;;;;;;1787361;80;21157;-71
2021/04/20 02:44:16;;;;;;;14.45;9.15;;;10.70;98.30;;;;;;1786905;80;21882;-72
2021/04/20 02:46:45;;;;;;;14.13;9.48;;;10.70;99.10;;;;;;1787068;80;21149;-72
2021/04/20 02:49:15;;;;;;;15.05;9.70;;;10.60;99.10;;;;;;1787189;80;21148;-70
2021/04/20 02:51:44;;;;;;;15.83;9.80;;;10.60;99.50;;;;;;1787098;80;21150;-70
2021/04/20 02:54:14;;;;;;;17.85;9.80;;;10.60;99.90;;;;;;1786954;80;21165;-71
2021/04/20 02:56:42;;;;;;;16.52;10.32;;;10.50;99.90;;;;;;1787176;80;21117;-71
2021/04/20 02:59:11;;;;;;;17.80;10.48;;;10.50;99.90;;;;;;1749718;82;21161;-71
2021/04/20 03:01:42;;;;;;;13.75;9.35;;;10.40;99.90;;;;;;1787133;80;21161;-70
2021/04/20 03:04:16;;;;;;;15.58;10.18;;;10.30;99.90;;;;;;1787397;80;21164;-71
2021/04/20 03:06:46;;;;;;;15.88;10.28;;;10.30;99.90;;;;;;1786782;80;21153;-71
2021/04/20 03:09:14;;;;;;;15.88;10.15;;;10.40;99.90;;;;;;1787165;80;21153;-71
2021/04/20 03:11:53;;;;;;;15.10;9.45;;;10.40;99.90;;;;;;1787213;80;21611;-71
2021/04/20 03:14:34;;;;;;;16.37;10.55;;;10.30;99.90;;;;;;1824263;77;22639;-71
2021/04/20 03:17:02;;;;;;;14.95;9.35;;;10.40;99.90;;;;;;1828365;78;21302;-72
2021/04/20 03:19:30;;;;;;;15.20;9.33;;;10.40;99.90;;;;;;1828212;78;21706;-70
2021/04/20 03:21:59;;;;;;;13.38;8.45;;;10.40;99.90;;;;;;1828133;78;21145;-71
2021/04/20 03:24:47;;;;;;;12.73;8.73;;;10.40;99.90;;;;;;1828220;78;21137;-71
2021/04/20 03:27:15;;;;;;;13.55;9.05;;;10.40;99.90;;;;;;1828167;78;21274;-69
2021/04/20 03:29:43;;;;;;;14.35;9.65;;;10.40;99.90;;;;;;1828229;78;21188;-70
2021/04/20 03:32:11;;;;;;;14.35;9.73;;;10.40;99.90;;;;;;1828125;78;21144;-70
2021/04/20 03:34:50;;;;;;;16.32;10.20;;;10.40;99.90;;;;;;1828345;78;21690;-70
2021/04/20 03:37:23;;;;;;;15.58;10.10;;;10.50;99.90;;;;;;1827586;78;21160;-72
2021/04/20 03:39:55;;;;;;;17.10;11.22;;;10.50;99.90;;;;;;1827859;78;21291;-72
2021/04/20 03:42:31;;;;;;;18.37;12.15;;;10.60;99.90;;;;;;1828151;78;21160;-72
2021/04/20 03:45:06;;;;;;;21.05;11.90;;;10.60;99.90;;;;;;1827430;78;21311;-72
2021/04/20 03:47:42;;;;;;;19.50;11.88;;;10.60;99.90;;;;;;1828524;78;21097;-72
2021/04/20 03:50:14;;;;;;;18.15;11.88;;;10.70;99.90;;;;;;1828279;78;21124;-72
2021/04/20 03:52:46;;;;;;;19.32;11.78;;;10.60;99.90;;;;;;1828091;78;21144;-73
2021/04/20 03:55:19;;;;;;;18.30;12.05;;;10.60;99.40;;;;;;1828250;78;21124;-73
2021/04/20 03:57:49;;;;;;;20.08;11.25;;;10.60;99.90;;;;;;1827959;78;21117;-72
2021/04/20 04:00:20;;;;;;;19.62;11.83;;;10.50;99.90;;;;;;1828096;78;21148;-72
2021/04/20 04:02:50;;;;;;;19.17;11.73;;;10.50;99.90;;;;;;1828431;78;21259;-72
2021/04/20 04:05:23;;;;;;;16.52;10.85;;;10.50;99.90;;;;;;1828146;78;21122;-72
2021/04/20 04:08:01;;;;;;;18.85;11.43;;;10.60;99.90;;;;;;1828133;78;21121;-72
2021/04/20 04:10:32;;;;;;;16.87;10.68;;;10.60;99.90;;;;;;1828328;78;21672;-72
2021/04/20 04:13:04;;;;;;;16.15;10.13;;;10.60;99.90;;;;;;1826717;78;21145;-71
2021/04/20 04:15:35;;;;;;;16.50;10.70;;;10.60;99.90;;;;;;1823169;79;21137;-72
2021/04/20 04:18:08;;;;;;;15.13;9.30;;;10.60;99.90;;;;;;1823650;78;21126;-71
2021/04/20 04:20:37;;;;;;;14.23;10.25;;;10.60;99.60;;;;;;1822607;79;21161;-71
2021/04/20 04:23:21;;;;;;;16.15;9.18;;;10.60;99.20;;;;;;1823273;79;21109;-71
2021/04/20 04:26:02;;;;;;;14.03;9.30;;;10.60;99.90;;;;;;1822597;79;21129;-71
2021/04/20 04:28:33;;;;;;;16.65;9.45;;;10.60;99.80;;;;;;1822669;78;21248;-71
2021/04/20 04:31:06;;;;;;;12.85;8.43;;;10.70;98.80;;;;;;1822704;79;21149;-70
2021/04/20 04:33:38;;;;;;;12.10;8.43;;;10.80;99.60;;;;;;1822842;78;21129;-71
2021/04/20 04:36:10;;;;;;;12.88;8.35;;;10.90;98.80;;;;;;1822631;79;21125;-71
2021/04/20 04:38:39;;;;;;;14.53;8.38;;;11.00;99.50;;;;;;1822889;78;21137;-71
2021/04/20 04:41:09;;;;;;;15.43;10.00;;;11.00;98.30;;;;;;1822684;79;21141;-71
2021/04/20 04:43:39;;;;;;;13.62;8.63;;;11.10;96.40;;;;;;1822756;79;21283;-70
2021/04/20 04:46:08;;;;;;;12.10;8.55;;;11.10;96.60;;;;;;1822814;79;21140;-71
2021/04/20 04:48:38;;;;;;;14.07;8.95;;;11.10;94.60;;;;;;1822559;78;21307;-70
2021/04/20 04:51:07;;;;;;;12.88;8.80;;;11.10;96.10;;;;;;1822747;78;21271;-71
2021/04/20 04:53:39;;;;;;;15.10;9.65;;;11.20;95.50;;;;;;1822504;79;21154;-71
2021/04/20 04:56:10;;;;;;;12.80;8.43;;;11.20;95.90;;;;;;1822578;79;21119;-70
2021/04/20 04:58:41;;;;;;;13.83;9.48;;;11.20;95.00;;;;;;1822823;79;21153;-71
2021/04/20 05:01:13;;;;;;;13.38;9.03;;;11.30;95.30;;;;;;1822767;78;21089;-71
2021/04/20 05:03:41;;;;;;;15.83;10.05;;;11.30;94.90;;;;;;1822078;79;21275;-72
2021/04/20 05:06:16;;;;;;;14.85;9.85;;;11.30;95.10;;;;;;1822599;78;21683;-72
2021/04/20 05:08:44;;;;;;;12.98;9.15;;;11.30;95.10;;;;;;1822741;78;21279;-72
2021/04/20 05:11:14;;;;;;;15.58;9.40;;;11.20;95.70;;;;;;1822645;78;21287;-71
2021/04/20 05:13:42;;;;;;;12.95;9.18;;;11.30;96.40;;;;;;1822524;78;21144;-71
2021/04/20 05:16:11;;;;;;;13.98;9.23;;;11.30;95.30;;;;;;1822227;79;21135;-71
2021/04/20 05:18:40;;;;;;;12.50;8.33;;;11.30;95.00;;;;;;1822379;79;21113;-71
2021/04/20 05:21:10;;;;;;;14.13;8.80;;;11.30;95.30;;;;;;1822446;79;21149;-72
2021/04/20 05:23:37;;;;;;;13.10;9.20;;;11.30;94.80;;;;;;1822335;79;21141;-71
2021/04/20 05:26:05;;;;;;;14.38;8.95;;;11.20;95.60;;;;;;1822427;79;21165;-71
2021/04/20 05:28:33;;;;;;;13.83;8.50;;;11.30;95.00;;;;;;1822737;79;21141;-71
2021/04/20 05:31:01;;;;;;;14.40;9.10;;;11.30;94.60;;;;;;1820983;79;21161;-72
2021/04/20 05:33:28;;;;;;;13.35;9.08;;;11.30;95.10;;;;;;1821208;79;21133;-70
2021/04/20 05:36:08;;;;;;;14.47;9.58;;;11.20;94.90;;;;;;1813356;79;21114;-72
2021/04/20 05:38:37;;;;;;;15.45;9.98;;;11.20;94.70;;;;;;1797166;79;21129;-72
2021/04/20 05:41:07;;;;;;;14.70;9.75;;;11.10;94.40;;;;;;1790006;80;21164;-72
2021/04/20 05:43:34;;;;;;;16.97;10.38;;;11.10;95.20;;;;;;1790060;80;21551;-78
2021/04/20 05:46:05;;;;;;;16.15;10.10;;;11.00;95.20;;;;;;1790046;80;21157;-78
2021/04/20 05:48:33;;;;;;;15.23;9.48;;;11.00;95.40;;;;;;1795984;79;21181;-80
2021/04/20 05:51:01;;;;;;;13.62;8.85;;;11.00;95.60;;;;;;1806645;79;21144;-79
2021/04/20 05:53:29;;;;;;;16.85;8.58;;;11.10;96.00;;;;;;1797717;79;21141;-81
2021/04/20 05:55:59;;;;;;;11.65;8.03;;;11.10;95.50;;;;;;1796603;79;21121;-80
2021/04/20 05:58:27;;;;;;;12.95;8.40;;;11.20;95.40;;;;;;1801959;79;21184;-80
2021/04/20 06:00:55;;;;;;;14.43;9.78;;;11.20;94.10;;;;;;1807890;79;21178;-81
2021/04/20 06:03:23;;;;;;;15.55;9.85;;;11.30;94.40;;;;;;1822592;79;21149;-84
2021/04/20 06:05:53;;;;;;;13.55;8.58;;;11.30;95.60;;;;;;1822204;79;21144;-79
2021/04/20 06:08:21;;;;;;;15.58;8.93;;;11.40;93.50;;;;;;1822725;79;21545;-78
2021/04/20 06:10:49;;;;;;;13.00;9.10;;;11.50;93.30;;;;;;1822113;79;21148;-78
2021/04/20 06:13:17;;;;;;;12.80;8.43;;;11.50;92.80;;;;;;1822544;78;21339;-81
2021/04/20 06:15:45;;;;;;;14.50;8.25;;;11.50;92.90;;;;;;1822540;79;21126;-78
2021/04/20 06:18:13;;;;;;;14.00;9.23;;;11.50;94.20;;;;;;1822178;79;21141;-78
2021/04/20 06:20:41;;;;;;;18.32;9.18;;;11.60;93.40;;;;;;1822409;79;21714;-78
2021/04/20 06:23:10;;;;;;;13.93;9.68;;;11.50;92.70;;;;;;1822728;79;21502;-80
2021/04/20 06:25:38;;;;;;;17.10;9.35;;;11.60;93.20;;;;;;1822369;79;21156;-79
2021/04/20 06:28:08;;;;;;;14.98;9.68;;;11.60;93.20;;;;;;1821429;79;21133;-82
2021/04/20 06:30:37;;;;;;;15.43;9.60;;;11.60;92.70;;;;;;1797028;79;21168;-80
2021/04/20 06:33:06;;;;;;;15.45;9.20;;;11.50;93.90;;;;;;1805080;79;21607;-78
2021/04/20 06:35:37;;;;;;;15.60;9.43;;;11.60;93.40;;;;;;1812051;78;21318;-77
2021/04/20 06:38:06;;;;;;;14.80;9.05;;;11.60;93.20;;;;;;1802307;78;21556;-77
2021/04/20 06:40:45;;;;;;;15.53;10.70;;;11.60;93.20;;;;;;1803628;79;21113;-77
2021/04/20 06:43:15;;;;;;;15.45;9.45;;;11.70;93.60;;;;;;1805002;79;21109;-77
2021/04/20 06:45:50;;;;;;;15.03;8.25;;;11.70;92.40;;;;;;1798183;78;21125;-77
2021/04/20 06:48:42;;;;;;;19.50;8.83;;;11.70;92.60;;;;;;1797790;79;21603;-77
2021/04/20 06:51:30;;;;;;;13.08;8.83;;;11.70;92.30;;;;;;1773521;79;21137;-79
2021/04/20 06:54:37;;;;;;;17.75;8.85;;;11.80;91.10;;;;;;1802350;79;21180;-73
2021/04/20 06:57:16;;;;;;;13.77;8.37;;;11.70;91.10;;;;;;1800827;79;21292;-68
2021/04/20 07:00:06;;;;;;;13.38;8.15;;;11.60;91.50;;;;;;1801064;79;21114;-68
2021/04/20 07:03:10;;;;;;;13.88;9.25;;;11.60;91.40;;;;;;1808284;79;21223;-75
2021/04/20 07:05:49;;;;;;;14.07;8.28;;;11.60;91.70;;;;;;1804060;79;21113;-74
2021/04/20 07:08:48;;;;;;;12.15;7.95;;;11.60;92.20;;;;;;1800294;79;21551;-72
2021/04/20 07:11:16;;;;;;;12.53;8.05;;;11.50;91.80;;;;;;1806922;79;21125;-78
2021/04/20 07:13:50;;;;;;;12.00;7.92;;;11.40;93.20;;;;;;1802924;78;21149;-70
2021/04/20 07:16:34;;;;;;;14.58;8.23;;;11.50;92.60;;;;;;1799673;79;21120;-72
2021/04/20 07:19:20;;;;;;;13.22;8.25;;;11.60;92.40;;;;;;1805773;79;21607;-74
2021/04/20 07:22:25;;;;;;;13.45;8.63;;;11.70;92.20;;;;;;1800096;79;21153;-74
2021/04/20 07:25:23;;;;;;;14.18;9.10;;;11.80;91.30;;;;;;1802817;79;21126;-75
2021/04/20 07:28:22;;;;;;;14.03;9.50;;;11.90;91.20;;;;;;1804703;79;21128;-76
2021/04/20 07:31:21;;;;;;;16.57;9.75;;;11.90;90.70;;;;;;1802131;79;21132;-76
2021/04/20 07:34:12;;;;;;;13.98;9.28;;;12.00;90.10;;;;;;1802256;79;21121;-81
2021/04/20 07:37:28;;;;;;;15.25;9.93;;;11.90;90.40;;;;;;1754462;79;21164;-68
2021/04/20 07:40:37;;;;;;;15.70;9.75;;;11.90;90.60;;;;;;1800273;79;21148;-71
2021/04/20 07:43:47;;;;;;;16.37;9.53;;;12.00;90.40;;;;;;1799680;79;21120;-78
2021/04/20 07:46:26;;;;;;;17.37;9.78;;;12.10;89.50;;;;;;1805007;79;21556;-75
2021/04/20 07:49:05;;;;;;;13.70;9.05;;;12.10;89.80;;;;;;1805092;79;21129;-76
2021/04/20 07:52:06;;;;;;;16.20;10.40;;;12.00;90.10;;;;;;1804428;79;21110;-77
2021/04/20 07:55:14;;;;;;;12.95;8.55;;;11.90;90.70;;;;;;1795964;79;21647;-78
2021/04/20 07:57:48;;;;;;;;;;;11.90;90.40;;;;;;1807771;79;21132;-77
2021/04/20 08:00:24;;;;;;;14.13;9.63;;;11.90;90.30;;;;;;1803120;79;20433;-77
2021/04/20 08:03:00;;;;;;;15.63;10.43;;;11.90;90.60;;;;;;1802661;79;21117;-78
2021/04/20 08:05:44;;;;;;;16.40;9.98;;;11.90;90.30;;;;;;1764912;79;21124;-79
2021/04/20 08:08:23;;;;;;;13.78;9.70;;;11.80;90.80;;;;;;1728797;82;21584;-78
2021/04/20 08:10:56;;;;;;;14.38;9.60;;;11.80;91.20;;;;;;1760408;80;21133;-79
2021/04/20 08:13:47;;;;;;;18.00;10.68;;;11.70;91.50;;;;;;1759971;81;21157;-75
2021/04/20 08:16:32;;;;;;;15.65;10.48;;;11.70;91.20;;;;;;1726218;82;21139;-75
2021/04/20 08:19:27;;;;;;;15.50;10.20;;;11.70;91.50;;;;;;1736988;82;21128;-76
2021/04/20 08:22:10;;;;;;;16.70;10.25;;;11.60;91.80;;;;;;1737085;82;21519;-78
2021/04/20 08:25:03;;;;;;;16.17;10.65;;;11.70;92.20;;;;;;1724048;82;21154;-76
2021/04/20 08:27:58;;;;;;;14.93;9.90;;;11.60;93.00;;;;;;1721901;83;21147;-76
2021/04/20 08:30:46;;;;;;;15.48;10.35;;;11.60;92.60;;;;;;1741330;81;21141;-75
2021/04/20 08:33:32;;;;;;;17.27;10.68;;;11.70;92.10;;;;;;1745244;81;21090;-72
2021/04/20 08:36:22;;;;;;;15.13;9.68;;;11.70;92.60;;;;;;1730035;81;21142;-80
2021/04/20 08:39:05;;;;;;;14.70;10.05;;;11.70;91.90;;;;;;1699835;83;21153;-83
2021/04/20 08:41:41;;;;;;;16.17;9.28;;;11.70;91.60;;;;;;1729448;83;21141;-79
2021/04/20 08:44:32;;;;;;;18.82;9.13;;;11.90;91.80;;;;;;1746444;81;21131;-75
2021/04/20 08:47:21;;;;;;;15.03;9.48;;;11.90;90.90;;;;;;1743376;81;21126;-78
2021/04/20 08:50:13;;;;;;;14.90;9.53;;;11.80;90.10;;;;;;1751683;81;21098;-89
2021/04/20 08:53:09;;;;;;;14.87;9.90;;;11.70;90.20;;;;;;1757936;81;21193;-76
2021/04/20 08:55:48;;;;;;;14.95;9.58;;;11.60;90.30;;;;;;1746022;81;21168;-74
2021/04/20 08:59:13;;;;;;;13.58;9.10;;;11.60;90.90;;;;;;1743626;81;21125;-74
2021/04/20 09:02:18;;;;;;;16.02;8.70;;;11.60;92.20;;;;;;1745774;81;21172;-75
2021/04/20 09:05:04;;;;;;;12.85;8.38;;;11.70;93.30;;;;;;1742933;81;21716;-74
2021/04/20 09:08:00;;;;;;;12.83;8.90;;;11.70;93.40;;;;;;1745834;81;21133;-74
2021/04/20 09:10:39;;;;;;;16.10;9.20;;;11.60;95.20;;;;;;1741528;81;21156;-75
2021/04/20 09:13:22;;;;;;;14.35;10.00;;;11.60;94.10;;;;;;1742606;81;21133;-73
2021/04/20 09:15:58;;;;;;;13.70;9.23;;;11.60;93.20;;;;;;1743454;81;21118;-73
2021/04/20 09:18:38;;;;;;;12.30;6.95;;;11.60;93.40;;;;;;1743300;81;21144;-72
2021/04/20 09:21:18;;;;;;;11.73;7.40;;;11.50;93.10;;;;;;1742845;81;21157;-72
2021/04/20 09:24:02;;;;;;;12.07;7.53;;;11.60;93.60;;;;;;1741132;81;21176;-75
2021/04/20 09:26:43;;;;;;;12.65;7.78;;;11.40;93.30;;;;;;1742212;82;21136;-74
2021/04/20 09:29:31;;;;;;;12.45;8.08;;;11.30;94.90;;;;;;1743546;82;21125;-72
2021/04/20 09:32:10;;;;;;;10.55;7.08;;;11.40;94.70;;;;;;1742460;82;21141;-68
2021/04/20 09:34:43;;;;;;;10.23;6.58;;;11.40;95.40;;;;;;1730971;82;21129;-69
2021/04/20 09:37:14;;;;;;;12.65;6.97;;;11.30;95.40;;;;;;1751039;82;21133;-69
2021/04/20 09:39:46;;;;;;;11.57;6.35;;;11.40;94.70;;;;;;1752603;82;21161;-68
2021/04/20 09:42:17;;;;;;;9.70;5.87;;;11.50;94.90;;;;;;1757214;82;21572;-72
2021/04/20 09:44:53;;;;;;;7.20;4.83;;;11.40;93.40;;;;;;1746764;82;21579;-78
2021/04/20 09:47:58;;;;;;;7.70;4.37;;;11.30;93.80;;;;;;1744340;82;21172;-82
2021/04/20 09:50:34;;;;;;;7.95;4.30;;;11.50;94.20;;;;;;1744316;82;21141;-79
2021/04/20 09:53:17;;;;;;;;;;;11.50;93.00;;;;;;1747442;82;21161;-76
2021/04/20 09:55:53;;;;;;;8.68;5.22;;;11.50;91.80;;;;;;1745144;82;20129;-74
2021/04/20 09:58:25;;;;;;;8.43;5.35;;;11.40;92.80;;;;;;1747852;80;21144;-78
2021/04/20 10:00:58;;;;;;;8.40;4.60;;;11.40;92.50;;;;;;1755244;81;21572;-78
2021/04/20 10:03:46;;;;;;;6.50;4.47;;;11.40;92.70;;;;;;1740380;82;21145;-74
2021/04/20 10:06:41;;;;;;;6.37;4.00;;;11.50;92.60;;;;;;1693706;82;21155;-79
2021/04/20 10:09:17;;;;;;;7.67;4.20;;;11.50;91.70;;;;;;1743599;82;21588;-77
2021/04/20 10:12:10;;;;;;;7.15;4.40;;;11.60;91.40;;;;;;1741286;80;21283;-72
2021/04/20 10:15:18;;;;;;;6.78;4.60;;;11.70;91.50;;;;;;1740956;82;21149;-71
2021/04/20 10:18:04;;;;;;;5.53;3.47;;;11.90;91.80;;;;;;1742541;82;21211;-75
2021/04/20 10:21:20;;;;;;;6.95;3.35;;;12.10;90.00;;;;;;1742931;82;21650;-73
2021/04/20 10:24:23;;;;;;;5.17;3.55;;;12.20;90.20;;;;;;1744398;81;21161;-74
2021/04/20 10:27:09;;;;;;;6.47;4.15;;;12.30;86.50;;;;;;1745713;81;21145;-75
2021/04/20 10:29:57;;;;;;;7.20;4.90;;;12.40;86.40;;;;;;1680939;85;21304;-77
2021/04/20 10:32:36;;;;;;;8.43;5.15;;;12.50;87.00;;;;;;1740196;81;21158;-74
2021/04/20 10:35:13;;;;;;;9.13;4.95;;;12.50;86.40;;;;;;1752914;81;21144;-73
2021/04/20 10:37:47;;;;;;;7.85;5.20;;;12.50;90.00;;;;;;1745755;81;21129;-74
2021/04/20 10:40:35;;;;;;;7.08;4.95;;;12.30;84.90;;;;;;1745866;81;21605;-74
2021/04/20 10:43:09;;;;;;;7.20;4.80;;;12.30;87.10;;;;;;1745662;81;21110;-69
2021/04/20 10:45:40;;;;;;;7.25;4.78;;;12.30;86.50;;;;;;1742923;81;21169;-71
2021/04/20 10:48:15;;;;;;;7.00;4.90;;;12.30;85.50;;;;;;1743553;81;21133;-75
2021/04/20 10:50:49;;;;;;;5.17;3.58;;;12.10;85.40;;;;;;1694111;85;21159;-74
2021/04/20 10:53:34;;;;;;;5.40;3.87;;;12.00;83.10;;;;;;1729221;83;21193;-72
2021/04/20 10:56:12;;;;;;;7.08;3.77;;;12.00;85.70;;;;;;1753555;81;21132;-74
2021/04/20 10:58:47;;;;;;;3.45;2.22;;;11.90;86.10;;;;;;1759482;81;21149;-73
2021/04/20 11:01:17;;;;;;;7.90;2.30;;;12.00;84.40;;;;;;1746871;81;21180;-87
2021/04/20 11:03:49;;;;;;;5.03;2.47;;;12.10;82.30;;;;;;1744513;81;21138;-71
2021/04/20 11:07:14;;;;;;;6.30;2.50;;;12.20;81.70;;;;;;1745684;81;21122;-78
2021/04/20 11:09:42;;;;;;;2.95;1.62;;;12.30;81.40;;;;;;1746174;81;21129;-70
2021/04/20 11:12:19;;;;;;;6.40;2.52;;;12.30;80.00;;;;;;1744686;81;21544;-69
2021/04/20 11:14:50;;;;;;;4.53;2.62;;;12.20;80.90;;;;;;1744158;81;21149;-73
2021/04/20 11:17:35;;;;;;;5.12;3.08;;;12.30;80.10;;;;;;1750870;81;21102;-77
2021/04/20 11:20:15;;;;;;;6.72;3.27;;;12.40;79.60;;;;;;1751564;80;21152;-74
2021/04/20 11:23:10;;;;;;;6.55;3.70;;;12.40;79.60;;;;;;1729480;83;21161;-69
2021/04/20 11:26:04;;;;;;;7.95;4.65;;;12.30;79.00;;;;;;1740965;81;21200;-69
2021/04/20 11:28:54;;;;;;;9.63;4.50;;;12.40;79.60;;;;;;1745591;81;21144;-71
2021/04/20 11:31:33;;;;;;;7.33;4.65;;;12.40;80.30;;;;;;1746750;81;21149;-72
2021/04/20 11:34:24;;;;;;;6.70;4.78;;;12.60;80.00;;;;;;1742469;81;21153;-81
2021/04/20 11:37:06;;;;;;;8.05;5.17;;;12.60;79.00;;;;;;1742997;81;21607;-74
2021/04/20 11:39:39;;;;;;;8.00;5.30;;;12.70;80.00;;;;;;1745946;81;21572;-70
2021/04/20 11:42:42;;;;;;;9.08;5.12;;;12.70;79.50;;;;;;1743326;81;21181;-78
2021/04/20 11:45:15;;;;;;;6.83;4.50;;;12.80;79.30;;;;;;1748573;81;21607;-76
2021/04/20 11:48:11;;;;;;;7.15;4.40;;;13.00;79.80;;;;;;1759627;81;21150;-75
2021/04/20 11:51:01;;;;;;;6.60;4.70;;;13.10;78.50;;;;;;1744376;81;21160;-80
2021/04/20 11:53:38;;;;;;;7.55;4.35;;;13.30;77.00;;;;;;1727881;83;21263;-77
2021/04/20 11:56:07;;;;;;;7.78;5.10;;;13.30;76.30;;;;;;1729266;83;21165;-77
2021/04/20 11:58:42;;;;;;;7.67;4.70;;;13.30;75.60;;;;;;1729163;82;21173;-75
2021/04/20 12:01:21;;;;;;;7.05;4.12;;;13.40;76.70;;;;;;1729609;83;21576;-76
2021/04/20 12:04:05;;;;;;;7.35;3.00;;;13.40;77.90;;;;;;1737672;81;21165;-73
2021/04/20 12:06:49;;;;;;;6.37;4.22;;;13.50;76.10;;;;;;1729506;83;21133;-77
2021/04/20 12:09:24;;;;;;;7.72;5.05;;;13.40;77.60;;;;;;1729433;83;21164;-77
2021/04/20 12:11:54;;;;;;;8.80;5.35;;;13.60;79.70;;;;;;1752752;81;21137;-76
2021/04/20 12:14:27;;;;;;;9.20;6.35;;;13.60;80.60;;;;;;1736600;81;21097;-73
2021/04/20 12:16:57;;;;;;;9.05;6.20;;;13.70;83.10;;;;;;1745421;81;21141;-75
2021/04/20 12:19:30;;;;;;;10.28;6.03;;;13.90;79.40;;;;;;1747553;80;21189;-77
2021/04/20 12:22:04;;;;;;;10.50;6.08;;;13.90;78.70;;;;;;1746862;81;21141;-73
2021/04/20 12:24:36;;;;;;;11.05;6.83;;;14.00;77.50;;;;;;1744596;81;21605;-73
2021/04/20 12:27:06;;;;;;;12.05;7.50;;;14.00;77.40;;;;;;1742227;81;21152;-71
2021/04/20 12:29:44;;;;;;;11.28;6.90;;;14.10;77.50;;;;;;1747035;81;21149;-73
2021/04/20 12:32:17;;;;;;;11.55;6.80;;;14.10;76.30;;;;;;1748634;81;21125;-73
2021/04/20 12:34:55;;;;;;;9.05;6.08;;;14.20;74.30;;;;;;1729465;83;21597;-73
2021/04/20 12:37:26;;;;;;;10.35;6.67;;;14.20;75.00;;;;;;1728866;82;21137;-74
2021/04/20 12:40:06;;;;;;;7.97;5.80;;;14.20;72.80;;;;;;1738727;81;21149;-73
2021/04/20 12:42:48;;;;;;;11.33;6.37;;;14.30;73.20;;;;;;1749026;81;21141;-73
2021/04/20 12:45:20;;;;;;;9.28;5.75;;;14.40;72.40;;;;;;1741597;81;21671;-71
2021/04/20 12:47:48;;;;;;;9.63;6.53;;;14.60;73.30;;;;;;1742846;81;21153;-71
2021/04/20 12:50:23;;;;;;;9.38;6.33;;;14.60;73.00;;;;;;1746987;81;21129;-72
2021/04/20 12:52:52;;;;;;;9.83;6.90;;;14.50;71.70;;;;;;1759130;81;21106;-75
2021/04/20 12:55:24;;;;;;;10.45;7.08;;;14.40;72.10;;;;;;1759692;81;21162;-73
2021/04/20 12:57:55;;;;;;;9.65;7.00;;;14.40;73.30;;;;;;1756526;81;21144;-74
2021/04/20 13:00:31;;;;;;;11.53;7.85;;;14.30;73.50;;;;;;1759549;81;21118;-73
2021/04/20 13:03:01;;;;;;;9.98;6.87;;;14.30;74.20;;;;;;1742923;81;21118;-73
2021/04/20 13:05:34;;;;;;;11.03;7.25;;;14.30;73.80;;;;;;1750780;80;21177;-72
2021/04/20 13:08:08;;;;;;;11.28;7.70;;;14.20;74.40;;;;;;1742244;81;21173;-72
2021/04/20 13:10:37;;;;;;;11.68;7.33;;;14.30;73.60;;;;;;1742737;81;21169;-69
2021/04/20 13:13:09;;;;;;;10.05;7.40;;;14.40;73.00;;;;;;1744644;81;21600;-70
2021/04/20 13:15:39;;;;;;;12.53;8.00;;;14.40;73.30;;;;;;1745894;81;21147;-73
2021/04/20 13:18:18;;;;;;;12.88;8.38;;;14.40;73.00;;;;;;1744536;81;21181;-74
2021/04/20 13:20:48;;;;;;;12.00;8.60;;;14.40;72.30;;;;;;1737504;81;21156;-72
2021/04/20 13:23:30;;;;;;;19.27;10.23;;;14.40;73.00;;;;;;1729320;83;21150;-71
2021/04/20 13:26:06;;;;;;;14.10;9.13;;;14.40;73.00;;;;;;1713736;82;21178;-75